<?xml version='1.0' encoding='UTF-8'?><gpx version="1.1" creator="JPX - https://github.com/jenetics/jpx" xmlns="http://www.topografix.com/GPX/1/1"><trk><trkseg><trkpt lat="45.6573817" lon="10.433335"><ele>438.0</ele><time>2026-03-22T14:39:50.086Z</time></trkpt><trkpt lat="45.65733" lon="10.433585"><ele>438.0</ele><time>2026-03-22T14:39:51.085Z</time></trkpt><trkpt lat="45.657515" lon="10.4338383"><ele>438.0</ele><time>2026-03-22T14:39:52.085Z</time></trkpt><trkpt lat="45.65761" lon="10.4339533"><ele>443.5</ele><time>2026-03-22T14:39:54.086Z</time></trkpt><trkpt lat="45.6577067" lon="10.4340133"><ele>449.0</ele><time>2026-03-22T14:39:55.086Z</time></trkpt><trkpt lat="45.6577717" lon="10.4340433"><ele>454.5</ele><time>2026-03-22T14:39:56.085Z</time></trkpt><trkpt lat="45.65784" lon="10.4341083"><ele>460.0</ele><time>2026-03-22T14:39:57.085Z</time></trkpt><trkpt lat="45.6579483" lon="10.43415"><ele>465.5</ele><time>2026-03-22T14:39:58.086Z</time></trkpt><trkpt lat="45.6580183" lon="10.4341733"><ele>471.0</ele><time>2026-03-22T14:39:59.085Z</time></trkpt><trkpt lat="45.6580917" lon="10.4342483"><ele>472.28571428571433</ele><time>2026-03-22T14:40:01.085Z</time></trkpt><trkpt lat="45.6581533" lon="10.4342833"><ele>473.57142857142856</ele><time>2026-03-22T14:40:04.244Z</time></trkpt><trkpt lat="45.6582167" lon="10.4342567"><ele>474.8571428571429</ele><time>2026-03-22T14:40:08.244Z</time></trkpt><trkpt lat="45.6582933" lon="10.4342317"><ele>476.14285714285717</ele><time>2026-03-22T14:40:12.244Z</time></trkpt><trkpt lat="45.6583667" lon="10.43422"><ele>477.42857142857144</ele><time>2026-03-22T14:40:16.244Z</time></trkpt><trkpt lat="45.6584267" lon="10.4341683"><ele>478.7142857142857</ele><time>2026-03-22T14:40:20.244Z</time></trkpt><trkpt lat="45.6584758" lon="10.4341011"><ele>480.0</ele><time>2026-03-22T14:40:24.323Z</time></trkpt><trkpt lat="45.6585288" lon="10.4340382"><ele>480.0</ele><time>2026-03-22T14:40:30.299Z</time></trkpt><trkpt lat="45.6585788" lon="10.4339615"><ele>480.0</ele><time>2026-03-22T14:40:33.307Z</time></trkpt><trkpt lat="45.6586285" lon="10.4339057"><ele>480.0</ele><time>2026-03-22T14:40:36.316Z</time></trkpt><trkpt lat="45.6586828" lon="10.4338497"><ele>480.0</ele><time>2026-03-22T14:40:40.327Z</time></trkpt><trkpt lat="45.6587387" lon="10.4337996"><ele>480.0</ele><time>2026-03-22T14:40:45.246Z</time></trkpt><trkpt lat="45.6588054" lon="10.4337814"><ele>480.0</ele><time>2026-03-22T14:40:52.261Z</time></trkpt><trkpt lat="45.6588591" lon="10.4337288"><ele>480.0</ele><time>2026-03-22T14:41:05.306Z</time></trkpt><trkpt lat="45.6588932" lon="10.4336478"><ele>483.8571428571429</ele><time>2026-03-22T14:41:10.314Z</time></trkpt><trkpt lat="45.6589511" lon="10.4335806"><ele>487.71428571428567</ele><time>2026-03-22T14:41:14.301Z</time></trkpt><trkpt lat="45.6590072" lon="10.4335171"><ele>491.57142857142856</ele><time>2026-03-22T14:41:19.225Z</time></trkpt><trkpt lat="45.6590608" lon="10.4334487"><ele>495.42857142857144</ele><time>2026-03-22T14:41:26.349Z</time></trkpt><trkpt lat="45.6590825" lon="10.4333622"><ele>499.28571428571433</ele><time>2026-03-22T14:41:32.275Z</time></trkpt><trkpt lat="45.6591393" lon="10.4333107"><ele>503.1428571428571</ele><time>2026-03-22T14:41:43.305Z</time></trkpt><trkpt lat="45.6592032" lon="10.4332727"><ele>507.0</ele><time>2026-03-22T14:41:51.33Z</time></trkpt><trkpt lat="45.6592691" lon="10.4332632"><ele>507.0</ele><time>2026-03-22T14:41:59.324Z</time></trkpt><trkpt lat="45.659312" lon="10.4331883"><ele>507.0</ele><time>2026-03-22T14:42:13.291Z</time></trkpt><trkpt lat="45.6593645" lon="10.4331293"><ele>507.0</ele><time>2026-03-22T14:42:21.314Z</time></trkpt><trkpt lat="45.6594536" lon="10.4330682"><ele>507.0</ele><time>2026-03-22T14:42:37.26Z</time></trkpt><trkpt lat="45.6595" lon="10.4329908"><ele>507.0</ele><time>2026-03-22T14:42:41.271Z</time></trkpt><trkpt lat="45.6595559" lon="10.4329413"><ele>507.0</ele><time>2026-03-22T14:42:45.282Z</time></trkpt><trkpt lat="45.6596106" lon="10.4328659"><ele>507.0</ele><time>2026-03-22T14:42:49.294Z</time></trkpt><trkpt lat="45.6596401" lon="10.4327858"><ele>512.4285714285714</ele><time>2026-03-22T14:42:58.319Z</time></trkpt><trkpt lat="45.6596959" lon="10.4327272"><ele>517.8571428571429</ele><time>2026-03-22T14:43:29.345Z</time></trkpt><trkpt lat="45.6597643" lon="10.4327197"><ele>523.2857142857143</ele><time>2026-03-22T14:43:36.327Z</time></trkpt><trkpt lat="45.6598218" lon="10.4326794"><ele>528.7142857142858</ele><time>2026-03-22T14:43:46.2Z</time></trkpt><trkpt lat="45.6598715" lon="10.4326238"><ele>534.1428571428572</ele><time>2026-03-22T14:43:55.28Z</time></trkpt><trkpt lat="45.659964" lon="10.4325513"><ele>539.5714285714286</ele><time>2026-03-22T14:44:48.246Z</time></trkpt><trkpt lat="45.6600229" lon="10.4324906"><ele>545.0</ele><time>2026-03-22T14:44:54.323Z</time></trkpt><trkpt lat="45.6600838" lon="10.4324582"><ele>545.0</ele><time>2026-03-22T14:45:01.166Z</time></trkpt><trkpt lat="45.6601479" lon="10.4324256"><ele>545.0</ele><time>2026-03-22T14:45:08.224Z</time></trkpt><trkpt lat="45.6602167" lon="10.4324179"><ele>545.0</ele><time>2026-03-22T14:45:15.326Z</time></trkpt><trkpt lat="45.660281" lon="10.432414"><ele>545.0</ele><time>2026-03-22T14:45:24.403Z</time></trkpt><trkpt lat="45.6603587" lon="10.4324276"><ele>545.0</ele><time>2026-03-22T14:45:32.257Z</time></trkpt><trkpt lat="45.660425" lon="10.4323922"><ele>545.0</ele><time>2026-03-22T14:45:37.183Z</time></trkpt><trkpt lat="45.6604844" lon="10.4324339"><ele>545.0</ele><time>2026-03-22T14:45:45.294Z</time></trkpt><trkpt lat="45.6605538" lon="10.4324654"><ele>546.4285714285714</ele><time>2026-03-22T14:45:51.222Z</time></trkpt><trkpt lat="45.6606176" lon="10.4324976"><ele>547.8571428571429</ele><time>2026-03-22T14:45:55.323Z</time></trkpt><trkpt lat="45.6606717" lon="10.4325576"><ele>549.2857142857143</ele><time>2026-03-22T14:45:59.335Z</time></trkpt><trkpt lat="45.6607343" lon="10.4326251"><ele>550.7142857142858</ele><time>2026-03-22T14:46:04.248Z</time></trkpt><trkpt lat="45.660787" lon="10.4326962"><ele>552.1428571428571</ele><time>2026-03-22T14:46:09.262Z</time></trkpt><trkpt lat="45.6608411" lon="10.4327543"><ele>553.5714285714287</ele><time>2026-03-22T14:46:14.323Z</time></trkpt><trkpt lat="45.6608872" lon="10.4328252"><ele>555.0</ele><time>2026-03-22T14:46:18.345Z</time></trkpt><trkpt lat="45.6609294" lon="10.4329057"><ele>555.5714285714287</ele><time>2026-03-22T14:46:22.299Z</time></trkpt><trkpt lat="45.6609716" lon="10.4329826"><ele>556.1428571428571</ele><time>2026-03-22T14:46:26.311Z</time></trkpt><trkpt lat="45.660973" lon="10.4330852"><ele>556.7142857142858</ele><time>2026-03-22T14:46:32.328Z</time></trkpt><trkpt lat="45.6609586" lon="10.4331744"><ele>557.2857142857143</ele><time>2026-03-22T14:46:37.304Z</time></trkpt><trkpt lat="45.6609182" lon="10.4332622"><ele>557.8571428571429</ele><time>2026-03-22T14:46:45.203Z</time></trkpt><trkpt lat="45.6609034" lon="10.4333501"><ele>558.4285714285714</ele><time>2026-03-22T14:46:52.141Z</time></trkpt><trkpt lat="45.6608524" lon="10.4334261"><ele>559.0</ele><time>2026-03-22T14:46:57.321Z</time></trkpt><trkpt lat="45.6608639" lon="10.4335263"><ele>559.0</ele><time>2026-03-22T14:47:03.316Z</time></trkpt><trkpt lat="45.6608331" lon="10.4336153"><ele>559.0</ele><time>2026-03-22T14:47:19.223Z</time></trkpt><trkpt lat="45.6607668" lon="10.4336206"><ele>559.0</ele><time>2026-03-22T14:47:25.341Z</time></trkpt><trkpt lat="45.6607414" lon="10.4337144"><ele>559.0</ele><time>2026-03-22T14:47:33.302Z</time></trkpt><trkpt lat="45.6606984" lon="10.4337821"><ele>559.0</ele><time>2026-03-22T14:47:38.199Z</time></trkpt><trkpt lat="45.6606332" lon="10.4337774"><ele>559.0</ele><time>2026-03-22T14:47:43.331Z</time></trkpt><trkpt lat="45.6605751" lon="10.4337381"><ele>559.0</ele><time>2026-03-22T14:47:47.342Z</time></trkpt><trkpt lat="45.6605016" lon="10.4337127"><ele>559.0</ele><time>2026-03-22T14:47:52.256Z</time></trkpt><trkpt lat="45.6604393" lon="10.4337333"><ele>559.0</ele><time>2026-03-22T14:47:56.267Z</time></trkpt><trkpt lat="45.6603781" lon="10.4337022"><ele>559.0</ele><time>2026-03-22T14:48:01.223Z</time></trkpt><trkpt lat="45.660327" lon="10.4336458"><ele>559.0</ele><time>2026-03-22T14:48:07.299Z</time></trkpt><trkpt lat="45.6603225" lon="10.4335537"><ele>559.0</ele><time>2026-03-22T14:48:19.25Z</time></trkpt><trkpt lat="45.6602593" lon="10.4335221"><ele>559.0</ele><time>2026-03-22T14:48:57.342Z</time></trkpt><trkpt lat="45.6601548" lon="10.4335077"><ele>559.0</ele><time>2026-03-22T14:49:27.327Z</time></trkpt><trkpt lat="45.660082" lon="10.4335241"><ele>556.0</ele><time>2026-03-22T14:49:32.323Z</time></trkpt><trkpt lat="45.6600078" lon="10.4335193"><ele>553.0</ele><time>2026-03-22T14:49:37.302Z</time></trkpt><trkpt lat="45.659929" lon="10.4335166"><ele>550.0</ele><time>2026-03-22T14:49:42.269Z</time></trkpt><trkpt lat="45.6598642" lon="10.4334946"><ele>547.0</ele><time>2026-03-22T14:49:46.283Z</time></trkpt><trkpt lat="45.6597922" lon="10.4335006"><ele>544.0</ele><time>2026-03-22T14:49:50.292Z</time></trkpt><trkpt lat="45.6597101" lon="10.433498"><ele>541.0</ele><time>2026-03-22T14:49:54.32Z</time></trkpt><trkpt lat="45.6596425" lon="10.4335038"><ele>538.0</ele><time>2026-03-22T14:49:59.304Z</time></trkpt><trkpt lat="45.6595783" lon="10.4335517"><ele>538.0</ele><time>2026-03-22T14:50:06.307Z</time></trkpt><trkpt lat="45.6595223" lon="10.4335931"><ele>538.0</ele><time>2026-03-22T14:50:10.349Z</time></trkpt><trkpt lat="45.6594616" lon="10.433658"><ele>538.0</ele><time>2026-03-22T14:50:14.26Z</time></trkpt><trkpt lat="45.6593903" lon="10.4337028"><ele>538.0</ele><time>2026-03-22T14:50:19.341Z</time></trkpt><trkpt lat="45.659324" lon="10.4337191"><ele>538.0</ele><time>2026-03-22T14:50:24.289Z</time></trkpt><trkpt lat="45.6592613" lon="10.433769"><ele>538.0</ele><time>2026-03-22T14:50:29.303Z</time></trkpt><trkpt lat="45.6591926" lon="10.4338021"><ele>538.0</ele><time>2026-03-22T14:50:34.318Z</time></trkpt><trkpt lat="45.6591263" lon="10.433864"><ele>532.2857142857143</ele><time>2026-03-22T14:50:38.322Z</time></trkpt><trkpt lat="45.6590617" lon="10.4339061"><ele>526.5714285714287</ele><time>2026-03-22T14:50:42.341Z</time></trkpt><trkpt lat="45.6590104" lon="10.433985"><ele>520.8571428571429</ele><time>2026-03-22T14:50:46.243Z</time></trkpt><trkpt lat="45.6589681" lon="10.4340571"><ele>515.1428571428571</ele><time>2026-03-22T14:50:51.304Z</time></trkpt><trkpt lat="45.658897" lon="10.4340341"><ele>509.4285714285714</ele><time>2026-03-22T14:50:56.28Z</time></trkpt><trkpt lat="45.6588346" lon="10.4339901"><ele>503.71428571428567</ele><time>2026-03-22T14:51:01.209Z</time></trkpt><trkpt lat="45.6588007" lon="10.4339118"><ele>498.0</ele><time>2026-03-22T14:51:07.312Z</time></trkpt><trkpt lat="45.6588104" lon="10.4338202"><ele>498.0</ele><time>2026-03-22T14:51:14.332Z</time></trkpt><trkpt lat="45.6587943" lon="10.4337305"><ele>497.99999999999994</ele><time>2026-03-22T14:51:23.257Z</time></trkpt><trkpt lat="45.6587317" lon="10.4337587"><ele>498.0</ele><time>2026-03-22T14:51:28.344Z</time></trkpt><trkpt lat="45.6586794" lon="10.4338169"><ele>498.0</ele><time>2026-03-22T14:51:32.282Z</time></trkpt><trkpt lat="45.6586266" lon="10.4338819"><ele>497.99999999999994</ele><time>2026-03-22T14:51:36.295Z</time></trkpt><trkpt lat="45.658577" lon="10.4339483"><ele>498.0</ele><time>2026-03-22T14:51:41.103Z</time></trkpt><trkpt lat="45.6585269" lon="10.4340195"><ele>498.0</ele><time>2026-03-22T14:51:46.322Z</time></trkpt><trkpt lat="45.6584899" lon="10.434095"><ele>495.4285714285714</ele><time>2026-03-22T14:51:50.334Z</time></trkpt><trkpt lat="45.6584204" lon="10.4341353"><ele>492.8571428571428</ele><time>2026-03-22T14:51:56.25Z</time></trkpt><trkpt lat="45.6583639" lon="10.434196"><ele>490.2857142857143</ele><time>2026-03-22T14:52:01.282Z</time></trkpt><trkpt lat="45.6583035" lon="10.4342341"><ele>487.71428571428567</ele><time>2026-03-22T14:52:07.043Z</time></trkpt><trkpt lat="45.6582268" lon="10.4342611"><ele>485.1428571428571</ele><time>2026-03-22T14:52:12.284Z</time></trkpt><trkpt lat="45.6581639" lon="10.4342509"><ele>482.57142857142856</ele><time>2026-03-22T14:52:16.307Z</time></trkpt><trkpt lat="45.6580912" lon="10.4342499"><ele>480.0</ele><time>2026-03-22T14:52:21.323Z</time></trkpt><trkpt lat="45.6580146" lon="10.4342547"><ele>480.0</ele><time>2026-03-22T14:52:26.336Z</time></trkpt><trkpt lat="45.6579464" lon="10.4342963"><ele>480.0</ele><time>2026-03-22T14:52:30.444Z</time></trkpt><trkpt lat="45.6578825" lon="10.4343074"><ele>480.0</ele><time>2026-03-22T14:52:34.724Z</time></trkpt><trkpt lat="45.6578145" lon="10.4343254"><ele>480.0</ele><time>2026-03-22T14:52:40.082Z</time></trkpt></trkseg></trk></gpx>